Time;durP1;ratioP1;P1;durP2;ratioP2;P2;SDS_P1;SDS_P2;PMS_P1;PMS_P2;Temp;Humidity;BMP_temperature;BMP_pressure;BME280_temperature;BME280_humidity;BME280_pressure;Samples;Min_cycle;Max_cycle;Signal;HPM_P1;HPM_P2
2023/07/11 00:00:52;;;;;;;;;;;;;;;;;;5131715;27;2110;-51
2023/07/11 00:03:20;;;;;;;;;;;;;;;;;;5131601;27;2058;-54
2023/07/11 00:06:01;;;;;;;;;;;;;;;;;;5131077;27;2092;-54
2023/07/11 00:08:29;;;;;;;;;;;;;;;;;;5116929;27;2095;-55
2023/07/11 00:10:57;;;;;;;;;;;;;;;;;;5110463;28;2104;-50
2023/07/11 00:13:25;;;;;;;;;;;;;;;;;;5110364;28;2005;-51
2023/07/11 00:15:57;;;;;;;;;;;;;;;;;;5115932;27;2018;-54
2023/07/11 00:18:32;;;;;;;;;;;;;;;;;;5112506;27;1917;-53
2023/07/11 00:21:03;;;;;;;;;;;;;;;;;;5131064;27;2051;-55
2023/07/11 00:23:30;;;;;;;;;;;;;;;;;;5130390;27;2161;-56
2023/07/11 00:25:58;;;;;;;;;;;;;;;;;;5128611;27;2013;-53
2023/07/11 00:28:25;;;;;;;;;;;;;;;;;;5128955;27;1853;-52
2023/07/11 00:30:54;;;;;;;;;;;;;;;;;;5130818;27;2182;-53
2023/07/11 00:33:21;;;;;;;;;;;;;;;;;;5126919;27;1944;-53
2023/07/11 00:35:50;;;;;;;;;;;;;;;;;;5110613;28;2034;-56
2023/07/11 00:38:18;;;;;;;;;;;;;;;;;;5110675;28;1993;-54
2023/07/11 00:40:47;;;;;;;;;;;;;;;;;;5109633;28;2018;-51
2023/07/11 00:43:17;;;;;;;;;;;;;;;;;;5110541;28;2153;-53
2023/07/11 00:46:03;;;;;;;;;;;;;;;;;;5110265;28;2161;-51
2023/07/11 00:48:36;;;;;;;;;;;;;;;;;;5119570;27;1849;-51
2023/07/11 00:51:05;;;;;;;;;;;;;;;;;;5112324;27;2126;-52
2023/07/11 00:53:33;;;;;;;;;;;;;;;;;;5118301;27;2199;-56
2023/07/11 00:56:02;;;;;;;;;;;;;;;;;;5111791;28;2481;-53
2023/07/11 00:58:31;;;;;;;;;;;;;;;;;;5122301;27;1925;-56
2023/07/11 01:00:59;;;;;;;;;;;;;;;;;;5110057;28;2090;-53
2023/07/11 01:03:28;;;;;;;;;;;;;;;;;;5110318;28;2198;-49
2023/07/11 01:05:57;;;;;;;;;;;;;;;;;;5109904;28;1811;-54
2023/07/11 01:08:24;;;;;;;;;;;;;;;;;;5110068;28;2094;-52
2023/07/11 01:10:52;;;;;;;;;;;;;;;;;;5109787;28;2065;-51
2023/07/11 01:13:20;;;;;;;;;;;;;;;;;;5110400;28;1824;-50
2023/07/11 01:15:49;;;;;;;;;;;;;;;;;;5112563;28;2108;-53
2023/07/11 01:18:16;;;;;;;;;;;;;;;;;;5111191;28;1983;-51
2023/07/11 01:20:43;;;;;;;;;;;;;;;;;;5108230;28;1898;-49
2023/07/11 01:23:10;;;;;;;;;;;;;;;;;;5108232;28;2044;-52
2023/07/11 01:25:39;;;;;;;;;;;;;;;;;;5107736;28;2061;-52
2023/07/11 01:28:07;;;;;;;;;;;;;;;;;;5107767;28;2171;-58
2023/07/11 01:30:35;;;;;;;;;;;;;;;;;;5108352;28;1934;-54
2023/07/11 01:33:02;;;;;;;;;;;;;;;;;;5107482;28;1986;-50
2023/07/11 01:35:30;;;;;;;;;;;;;;;;;;5109975;28;1999;-52
2023/07/11 01:37:57;;;;;;;;;;;;;;;;;;5109649;28;2101;-53
2023/07/11 01:40:24;;;;;;;;;;;;;;;;;;5109680;28;2121;-51
2023/07/11 01:42:53;;;;;;;;;;;;;;;;;;5109113;28;1874;-53
2023/07/11 01:45:21;;;;;;;;;;;;;;;;;;5110091;28;2094;-53
2023/07/11 01:47:50;;;;;;;;;;;;;;;;;;5111222;28;1869;-53
2023/07/11 01:50:18;;;;;;;;;;;;;;;;;;5130501;27;2590;-52
2023/07/11 01:52:45;;;;;;;;;;;;;;;;;;5127292;27;1996;-52
2023/07/11 01:55:13;;;;;;;;;;;;;;;;;;5113272;28;2077;-55
2023/07/11 01:57:40;;;;;;;;;;;;;;;;;;5113741;27;1975;-54
2023/07/11 02:00:08;;;;;;;;;;;;;;;;;;5113339;28;2059;-51
2023/07/11 02:02:50;;;;;;;;;;;;;;;;;;5113161;28;2142;-53
2023/07/11 02:05:19;;;;;;;;;;;;;;;;;;5115793;27;2027;-53
2023/07/11 02:07:47;;;;;;;;;;;;;;;;;;5133566;27;2066;-53
2023/07/11 02:10:14;;;;;;;;;;;;;;;;;;5133550;27;2188;-52
2023/07/11 02:12:43;;;;;;;;;;;;;;;;;;5133953;27;2065;-51
2023/07/11 02:15:11;;;;;;;;;;;;;;;;;;5133865;27;1995;-53
2023/07/11 02:17:39;;;;;;;;;;;;;;;;;;5133435;27;2055;-52
2023/07/11 02:20:08;;;;;;;;;;;;;;;;;;5133170;27;2135;-52
2023/07/11 02:22:39;;;;;;;;;;;;;;;;;;5133825;27;2046;-55
2023/07/11 02:25:07;;;;;;;;;;;;;;;;;;5133025;27;1966;-53
2023/07/11 02:27:37;;;;;;;;;;;;;;;;;;5133409;27;2039;-52
2023/07/11 02:30:05;;;;;;;;;;;;;;;;;;5133377;27;2199;-59
2023/07/11 02:32:32;;;;;;;;;;;;;;;;;;5133178;27;2085;-58
2023/07/11 02:35:00;;;;;;;;;;;;;;;;;;5113033;28;1905;-58
2023/07/11 02:37:27;;;;;;;;;;;;;;;;;;5112508;28;2060;-54
2023/07/11 02:39:55;;;;;;;;;;;;;;;;;;5112250;28;2053;-58
2023/07/11 02:42:22;;;;;;;;;;;;;;;;;;5115174;27;2157;-58
2023/07/11 02:44:50;;;;;;;;;;;;;;;;;;5133518;27;1950;-56
2023/07/11 02:47:17;;;;;;;;;;;;;;;;;;5132900;27;2089;-57
2023/07/11 02:49:44;;;;;;;;;;;;;;;;;;5132901;27;1965;-52
2023/07/11 02:52:12;;;;;;;;;;;;;;;;;;5132181;27;2135;-53
2023/07/11 02:54:42;;;;;;;;;;;;;;;;;;5112399;28;2013;-57
2023/07/11 02:57:11;;;;;;;;;;;;;;;;;;5116843;27;2168;-58
2023/07/11 02:59:38;;;;;;;;;;;;;;;;;;5133103;27;1947;-58
2023/07/11 03:02:06;;;;;;;;;;;;;;;;;;5132062;27;2145;-58
2023/07/11 03:04:34;;;;;;;;;;;;;;;;;;5132831;27;1908;-52
2023/07/11 03:07:01;;;;;;;;;;;;;;;;;;5132602;27;2192;-57
2023/07/11 03:09:32;;;;;;;;;;;;;;;;;;5132440;27;1775;-58
2023/07/11 03:11:59;;;;;;;;;;;;;;;;;;5132474;27;2238;-59
2023/07/11 03:14:27;;;;;;;;;;;;;;;;;;5132783;27;2160;-58
2023/07/11 03:16:54;;;;;;;;;;;;;;;;;;5132096;27;2102;-57
2023/07/11 03:19:22;;;;;;;;;;;;;;;;;;5132713;27;1906;-58
2023/07/11 03:21:50;;;;;;;;;;;;;;;;;;5132550;27;2216;-52
2023/07/11 03:24:17;;;;;;;;;;;;;;;;;;5132185;27;2154;-58
2023/07/11 03:26:46;;;;;;;;;;;;;;;;;;5118086;27;2123;-55
2023/07/11 03:29:14;;;;;;;;;;;;;;;;;;5112138;28;2280;-57
2023/07/11 03:31:43;;;;;;;;;;;;;;;;;;5111489;28;2235;-55
2023/07/11 03:34:10;;;;;;;;;;;;;;;;;;5112016;28;2108;-54
2023/07/11 03:36:38;;;;;;;;;;;;;;;;;;5111979;28;1965;-59
2023/07/11 03:39:06;;;;;;;;;;;;;;;;;;5111277;28;1926;-58
2023/07/11 03:41:33;;;;;;;;;;;;;;;;;;5111648;28;1936;-58
2023/07/11 03:44:01;;;;;;;;;;;;;;;;;;5111367;28;2110;-55
2023/07/11 03:46:28;;;;;;;;;;;;;;;;;;5111659;28;1957;-58
2023/07/11 03:48:58;;;;;;;;;;;;;;;;;;5111582;28;2030;-57
2023/07/11 03:51:26;;;;;;;;;;;;;;;;;;5111216;28;2078;-53
2023/07/11 03:53:53;;;;;;;;;;;;;;;;;;5110560;28;2058;-54
2023/07/11 03:56:21;;;;;;;;;;;;;;;;;;5111794;28;2003;-58
2023/07/11 03:58:48;;;;;;;;;;;;;;;;;;5111253;27;2046;-56
2023/07/11 04:01:16;;;;;;;;;;;;;;;;;;5110880;28;2340;-58
2023/07/11 04:03:44;;;;;;;;;;;;;;;;;;5131698;27;2008;-49
2023/07/11 04:06:14;;;;;;;;;;;;;;;;;;5131725;27;1978;-58
2023/07/11 04:08:42;;;;;;;;;;;;;;;;;;5130542;27;2090;-57
2023/07/11 04:11:09;;;;;;;;;;;;;;;;;;5131548;27;2137;-58
2023/07/11 04:13:36;;;;;;;;;;;;;;;;;;5121753;27;2157;-54
2023/07/11 04:16:07;;;;;;;;;;;;;;;;;;5110138;28;1823;-55
2023/07/11 04:18:34;;;;;;;;;;;;;;;;;;5111092;28;2120;-53
2023/07/11 04:21:02;;;;;;;;;;;;;;;;;;5110977;28;2050;-54
2023/07/11 04:23:29;;;;;;;;;;;;;;;;;;5110690;28;2009;-58
2023/07/11 04:25:56;;;;;;;;;;;;;;;;;;5110451;27;2064;-55
2023/07/11 04:28:24;;;;;;;;;;;;;;;;;;5110932;28;1927;-57
2023/07/11 04:30:51;;;;;;;;;;;;;;;;;;5110584;28;1912;-58
2023/07/11 04:33:19;;;;;;;;;;;;;;;;;;5111109;28;2015;-58
2023/07/11 04:35:46;;;;;;;;;;;;;;;;;;5110533;28;1958;-58
2023/07/11 04:38:13;;;;;;;;;;;;;;;;;;5110190;28;2139;-54
2023/07/11 04:40:41;;;;;;;;;;;;;;;;;;5110734;28;2023;-58
2023/07/11 04:43:08;;;;;;;;;;;;;;;;;;5110572;28;1948;-57
2023/07/11 04:45:35;;;;;;;;;;;;;;;;;;5109914;28;2044;-58
2023/07/11 04:48:02;;;;;;;;;;;;;;;;;;5110526;28;2131;-58
2023/07/11 04:50:29;;;;;;;;;;;;;;;;;;5110587;28;2027;-58
2023/07/11 04:52:56;;;;;;;;;;;;;;;;;;5109964;28;2035;-58
2023/07/11 04:55:23;;;;;;;;;;;;;;;;;;5110290;28;2049;-57
2023/07/11 04:57:50;;;;;;;;;;;;;;;;;;5110251;28;2025;-58
2023/07/11 05:00:17;;;;;;;;;;;;;;;;;;5110290;28;2112;-56
2023/07/11 05:02:44;;;;;;;;;;;;;;;;;;5110257;28;2000;-54
2023/07/11 05:05:11;;;;;;;;;;;;;;;;;;5110178;28;2104;-53
2023/07/11 05:07:39;;;;;;;;;;;;;;;;;;5109719;28;2109;-57
2023/07/11 05:10:05;;;;;;;;;;;;;;;;;;5110358;28;2342;-55
2023/07/11 05:12:32;;;;;;;;;;;;;;;;;;5110431;28;2038;-55
2023/07/11 05:14:59;;;;;;;;;;;;;;;;;;5109953;28;1830;-58
2023/07/11 05:17:26;;;;;;;;;;;;;;;;;;5112100;28;2337;-55
2023/07/11 05:19:54;;;;;;;;;;;;;;;;;;5130434;28;1967;-58
2023/07/11 05:22:21;;;;;;;;;;;;;;;;;;5130330;28;1891;-54
2023/07/11 05:24:48;;;;;;;;;;;;;;;;;;5130727;28;1881;-56
2023/07/11 05:27:15;;;;;;;;;;;;;;;;;;5134634;27;2228;-53
2023/07/11 05:29:42;;;;;;;;;;;;;;;;;;5134219;27;2036;-56
2023/07/11 05:32:09;;;;;;;;;;;;;;;;;;5134480;27;1998;-55
2023/07/11 05:34:36;;;;;;;;;;;;;;;;;;5134893;27;2090;-58
2023/07/11 05:37:03;;;;;;;;;;;;;;;;;;5133905;27;2008;-56
2023/07/11 05:39:29;;;;;;;;;;;;;;;;;;5134613;27;2038;-54
2023/07/11 05:42:00;;;;;;;;;;;;;;;;;;5134066;27;2017;-57
2023/07/11 05:44:28;;;;;;;;;;;;;;;;;;5134064;27;2129;-55
2023/07/11 05:46:54;;;;;;;;;;;;;;;;;;5134361;27;1947;-56
2023/07/11 05:49:21;;;;;;;;;;;;;;;;;;5134712;27;2039;-54
2023/07/11 05:51:49;;;;;;;;;;;;;;;;;;5133725;27;2116;-58
2023/07/11 05:54:16;;;;;;;;;;;;;;;;;;5115817;27;2185;-57
2023/07/11 05:56:43;;;;;;;;;;;;;;;;;;5113964;28;2135;-57
2023/07/11 05:59:10;;;;;;;;;;;;;;;;;;5113365;28;2076;-56
2023/07/11 06:01:37;;;;;;;;;;;;;;;;;;5113806;27;1959;-53
2023/07/11 06:04:04;;;;;;;;;;;;;;;;;;5113311;28;2108;-59
2023/07/11 06:06:31;;;;;;;;;;;;;;;;;;5113352;28;2116;-58
2023/07/11 06:08:58;;;;;;;;;;;;;;;;;;5113093;28;2037;-52
2023/07/11 06:11:27;;;;;;;;;;;;;;;;;;5113600;28;2004;-55
2023/07/11 06:13:54;;;;;;;;;;;;;;;;;;5112894;27;2021;-50
2023/07/11 06:16:21;;;;;;;;;;;;;;;;;;5113663;28;1967;-58
2023/07/11 06:18:48;;;;;;;;;;;;;;;;;;5115347;27;1915;-54
2023/07/11 06:21:15;;;;;;;;;;;;;;;;;;5133396;27;2039;-56
2023/07/11 06:23:44;;;;;;;;;;;;;;;;;;5133803;27;2146;-54
2023/07/11 06:26:11;;;;;;;;;;;;;;;;;;5133596;27;2047;-58
2023/07/11 06:28:38;;;;;;;;;;;;;;;;;;5133228;27;2091;-53
2023/07/11 06:31:05;;;;;;;;;;;;;;;;;;5133244;27;2286;-55
2023/07/11 06:33:33;;;;;;;;;;;;;;;;;;5115365;27;2016;-55
2023/07/11 06:36:00;;;;;;;;;;;;;;;;;;5132929;27;1938;-57
2023/07/11 06:38:27;;;;;;;;;;;;;;;;;;5132590;27;1967;-57
2023/07/11 06:40:54;;;;;;;;;;;;;;;;;;5133485;27;2287;-53
2023/07/11 06:43:22;;;;;;;;;;;;;;;;;;5133405;27;1985;-53
2023/07/11 06:45:49;;;;;;;;;;;;;;;;;;5133301;27;2160;-53
2023/07/11 06:48:15;;;;;;;;;;;;;;;;;;5131700;27;2089;-54
2023/07/11 06:50:42;;;;;;;;;;;;;;;;;;5132959;27;1967;-54
2023/07/11 06:53:09;;;;;;;;;;;;;;;;;;5112796;28;1970;-56
2023/07/11 06:55:36;;;;;;;;;;;;;;;;;;5112863;28;1898;-54
2023/07/11 06:58:03;;;;;;;;;;;;;;;;;;5112105;28;2032;-53
2023/07/11 07:00:30;;;;;;;;;;;;;;;;;;5112345;28;1973;-57
2023/07/11 07:02:57;;;;;;;;;;;;;;;;;;5112589;28;2197;-58
2023/07/11 07:05:24;;;;;;;;;;;;;;;;;;5112463;28;1901;-58
2023/07/11 07:07:51;;;;;;;;;;;;;;;;;;5112005;28;2088;-54
2023/07/11 07:10:30;;;;;;;;;;;;;;;;;;5118149;27;2177;-55
2023/07/11 07:12:57;;;;;;;;;;;;;;;;;;5111824;28;2235;-56
2023/07/11 07:15:24;;;;;;;;;;;;;;;;;;5112613;28;2113;-58
2023/07/11 07:17:51;;;;;;;;;;;;;;;;;;5111946;28;2076;-51
2023/07/11 07:20:18;;;;;;;;;;;;;;;;;;5112193;28;2029;-53
2023/07/11 07:22:45;;;;;;;;;;;;;;;;;;5111984;28;2020;-55
2023/07/11 07:25:12;;;;;;;;;;;;;;;;;;5112229;28;1868;-58
2023/07/11 07:27:50;;;;;;;;;;;;;;;;;;5111507;28;2289;-58
2023/07/11 07:30:17;;;;;;;;;;;;;;;;;;5112170;28;2288;-58
2023/07/11 07:32:44;;;;;;;;;;;;;;;;;;5112030;28;1838;-54
2023/07/11 07:35:11;;;;;;;;;;;;;;;;;;5111570;27;2073;-54
2023/07/11 07:37:38;;;;;;;;;;;;;;;;;;5112001;28;2211;-58
2023/07/11 07:40:06;;;;;;;;;;;;;;;;;;5111414;28;2143;-53
2023/07/11 07:42:33;;;;;;;;;;;;;;;;;;5113713;27;2511;-52
2023/07/11 09:13:11;;;;;;;;;;;;;;;;;;4872514;29;2066;-50
2023/07/11 09:15:59;;;;;;;;;;;;;;;;;;4876219;29;2089;-51
2023/07/11 09:18:36;;;;;;;;;;;;;;;;;;4875985;29;2048;-50
2023/07/11 09:21:03;;;;;;;;;;;;;;;;;;4876211;29;2243;-57
2023/07/11 09:23:30;;;;;;;;;;;;;;;;;;4876407;29;2040;-53
2023/07/11 09:26:09;;;;;;;;;;;;;;;;;;4875558;29;2231;-46
2023/07/11 09:28:37;;;;;;;;;;;;;;;;;;4876522;29;2134;-57
2023/07/11 09:31:17;;;;;;;;;;;;;;;;;;4876012;29;2267;-57
2023/07/11 09:33:50;;;;;;;;;;;;;;;;;;4874483;29;2117;-51
2023/07/11 09:36:17;;;;;;;;;;;;;;;;;;4873308;29;1853;-54
2023/07/11 09:38:47;;;;;;;;;;;;;;;;;;4876198;29;1919;-52
2023/07/11 09:41:30;;;;;;;;;;;;;;;;;;4875034;29;3381;-50
2023/07/11 09:44:11;;;;;;;;;;;;;;;;;;4875867;29;1789;-55
2023/07/11 09:46:38;;;;;;;;;;;;;;;;;;4875379;29;1771;-55
2023/07/11 09:49:09;;;;;;;;;;;;;;;;;;4874963;29;1712;-57
2023/07/11 09:51:42;;;;;;;;;;;;;;;;;;4875827;29;1776;-47
2023/07/11 09:54:16;;;;;;;;;;;;;;;;;;4875382;29;1739;-57
2023/07/11 09:56:45;;;;;;;;;;;;;;;;;;4874450;29;1904;-47
2023/07/11 09:59:14;;;;;;;;;;;;;;;;;;4875667;29;2516;-50
2023/07/11 10:01:42;;;;;;;;;;;;;;;;;;4873200;29;1787;-52
2023/07/11 10:04:16;;;;;;;;;;;;;;;;;;4875176;29;3276;-57
2023/07/11 10:06:52;;;;;;;;;;;;;;;;;;4875231;29;1689;-56
2023/07/11 10:09:24;;;;;;;;;;;;;;;;;;4875871;29;1769;-58
2023/07/11 10:11:54;;;;;;;;;;;;;;;;;;4872075;29;1659;-55
2023/07/11 10:14:23;;;;;;;;;;;;;;;;;;4879075;29;1788;-58
2023/07/11 10:16:51;;;;;;;;;;;;;;;;;;4862196;29;2403;-50
2023/07/11 10:19:20;;;;;;;;;;;;;;;;;;4873796;29;2073;-57
2023/07/11 10:21:49;;;;;;;;;;;;;;;;;;4878809;29;1596;-50
2023/07/11 10:24:23;;;;;;;;;;;;;;;;;;4878177;29;1873;-53
2023/07/11 10:26:56;;;;;;;;;;;;;;;;;;4878554;29;1792;-58
2023/07/11 10:29:25;;;;;;;;;;;;;;;;;;4862135;29;1795;-51
2023/07/11 10:31:52;;;;;;;;;;;;;;;;;;4878314;29;1762;-52
2023/07/11 10:34:22;;;;;;;;;;;;;;;;;;4878928;29;3105;-57
2023/07/11 10:36:51;;;;;;;;;;;;;;;;;;4859916;29;1792;-56
2023/07/11 10:39:26;;;;;;;;;;;;;;;;;;4876692;29;1985;-51
2023/07/11 10:41:57;;;;;;;;;;;;;;;;;;4877371;29;1807;-46
2023/07/11 10:44:28;;;;;;;;;;;;;;;;;;4878500;29;1810;-56
2023/07/11 10:46:56;;;;;;;;;;;;;;;;;;4877926;29;1872;-56
2023/07/11 10:49:27;;;;;;;;;;;;;;;;;;4874746;29;1818;-56
2023/07/11 10:52:01;;;;;;;;;;;;;;;;;;4877564;29;1765;-50
2023/07/11 10:54:43;;;;;;;;;;;;;;;;;;4877743;29;3166;-56
2023/07/11 10:57:14;;;;;;;;;;;;;;;;;;4877975;29;3489;-55
2023/07/11 10:59:44;;;;;;;;;;;;;;;;;;4878327;29;1972;-53
2023/07/11 11:02:18;;;;;;;;;;;;;;;;;;4877245;29;2656;-53
2023/07/11 11:04:48;;;;;;;;;;;;;;;;;;4878674;29;3262;-55
2023/07/11 11:07:23;;;;;;;;;;;;;;;;;;4878039;29;3592;-56
2023/07/11 11:09:59;;;;;;;;;;;;;;;;;;4877718;29;2657;-58
2023/07/11 11:12:41;;;;;;;;;;;;;;;;;;4877632;29;2818;-56
2023/07/11 11:15:34;;;;;;;;;;;;;;;;;;4877561;29;3224;-56
2023/07/11 11:18:01;;;;;;;;;;;;;;;;;;4855295;29;2806;-50
2023/07/11 11:20:47;;;;;;;;;;;;;;;;;;4877452;29;2684;-54
2023/07/11 11:23:25;;;;;;;;;;;;;;;;;;4877065;29;1963;-52
2023/07/11 11:26:05;;;;;;;;;;;;;;;;;;4876402;29;2774;-50
2023/07/11 11:28:48;;;;;;;;;;;;;;;;;;4877274;29;1725;-52
2023/07/11 11:31:20;;;;;;;;;;;;;;;;;;4876820;29;2684;-52
2023/07/11 11:34:02;;;;;;;;;;;;;;;;;;4876953;29;2767;-48
2023/07/11 11:36:52;;;;;;;;;;;;;;;;;;4860975;29;2816;-54
2023/07/11 11:39:25;;;;;;;;;;;;;;;;;;4876437;29;3295;-53
2023/07/11 11:41:56;;;;;;;;;;;;;;;;;;4877060;29;2833;-55
2023/07/11 11:44:31;;;;;;;;;;;;;;;;;;4876773;29;2791;-54
2023/07/11 11:47:01;;;;;;;;;;;;;;;;;;4876378;29;3326;-54
2023/07/11 11:49:48;;;;;;;;;;;;;;;;;;4876586;29;2570;-48
2023/07/11 11:52:35;;;;;;;;;;;;;;;;;;4876579;29;4096;-55
2023/07/11 11:55:22;;;;;;;;;;;;;;;;;;4876451;29;3328;-48
2023/07/11 11:57:50;;;;;;;;;;;;;;;;;;4876568;29;2846;-47
2023/07/11 12:00:39;;;;;;;;;;;;;;;;;;4876529;29;2771;-52
2023/07/11 12:03:18;;;;;;;;;;;;;;;;;;4876751;29;3377;-55
2023/07/11 12:05:50;;;;;;;;;;;;;;;;;;4876205;29;2824;-53
2023/07/11 12:08:28;;;;;;;;;;;;;;;;;;4876081;29;2109;-59
2023/07/11 12:11:08;;;;;;;;;;;;;;;;;;4875539;29;3974;-53
2023/07/11 12:13:39;;;;;;;;;;;;;;;;;;4876492;29;1994;-45
2023/07/11 12:16:07;;;;;;;;;;;;;;;;;;4875603;29;2722;-49
2023/07/11 12:18:41;;;;;;;;;;;;;;;;;;4876447;29;2658;-48
2023/07/11 12:21:12;;;;;;;;;;;;;;;;;;4875812;29;3335;-48
2023/07/11 12:23:43;;;;;;;;;;;;;;;;;;4876020;29;3397;-48
2023/07/11 12:26:31;;;;;;;;;;;;;;;;;;4873622;29;3103;-54
2023/07/11 12:29:18;;;;;;;;;;;;;;;;;;4875778;29;2762;-56
2023/07/11 12:31:57;;;;;;;;;;;;;;;;;;4874526;29;4077;-56
2023/07/11 12:34:24;;;;;;;;;;;;;;;;;;4875452;29;2793;-51
2023/07/11 12:36:56;;;;;;;;;;;;;;;;;;4875258;29;2854;-50
2023/07/11 12:40:28;;;;;;;;;;;;;;;;;;4874662;29;2729;-56
2023/07/11 12:44:26;;;;;;;;;;;;;;;;;;4875469;29;2715;-56
2023/07/11 12:48:26;;;;;;;;;;;;;;;;;;4875227;29;3200;-49
2023/07/11 12:52:24;;;;;;;;;;;;;;;;;;4874124;29;3254;-51
2023/07/11 12:56:23;;;;;;;;;;;;;;;;;;4875261;29;3355;-44
2023/07/11 13:00:21;;;;;;;;;;;;;;;;;;4874861;29;2118;-53
2023/07/11 13:04:19;;;;;;;;;;;;;;;;;;4874405;29;2716;-55
2023/07/11 13:08:17;;;;;;;;;;;;;;;;;;4874458;29;2063;-56
2023/07/11 13:16:15;;;;;;;;;;;;;;;;;;4853656;29;2798;-57
2023/07/11 13:18:44;;;;;;;;;;;;;;;;;;4875020;29;3151;-57
2023/07/11 14:21:28;;;;;;;;;;;;;;;;;;4856669;29;2188;-57
2023/07/11 14:25:28;;;;;;;;;;;;;;;;;;4875656;29;3220;-51
2023/07/11 14:29:27;;;;;;;;;;;;;;;;;;4877128;29;2659;-54
2023/07/11 14:33:25;;;;;;;;;;;;;;;;;;4877914;29;1959;-51
2023/07/11 14:37:24;;;;;;;;;;;;;;;;;;4876519;29;2075;-57
2023/07/11 14:41:24;;;;;;;;;;;;;;;;;;4876898;29;2673;-57
2023/07/11 14:45:22;;;;;;;;;;;;;;;;;;4875765;29;2438;-56
2023/07/11 14:49:20;;;;;;;;;;;;;;;;;;4878154;29;2344;-49
2023/07/11 14:53:19;;;;;;;;;;;;;;;;;;4877869;29;2148;-55
2023/07/11 14:57:17;;;;;;;;;;;;;;;;;;4878072;29;2058;-56
2023/07/11 15:01:15;;;;;;;;;;;;;;;;;;4877793;29;2326;-56
2023/07/11 15:05:12;;;;;;;;;;;;;;;;;;4878412;29;2215;-54
2023/07/11 15:09:11;;;;;;;;;;;;;;;;;;4878396;29;2126;-52
2023/07/11 15:13:10;;;;;;;;;;;;;;;;;;4878074;29;2106;-49
2023/07/11 15:17:08;;;;;;;;;;;;;;;;;;4876288;29;1975;-57
2023/07/11 15:21:07;;;;;;;;;;;;;;;;;;4875141;29;2227;-56
